createdAt,value
2022-11-28T00:01:37.150Z,101752.16
2022-11-28T00:04:06.873Z,101754.69
2022-11-28T00:06:38.096Z,101754.69
2022-11-28T00:09:08.126Z,101738.50
2022-11-28T00:11:35.725Z,101738.47
2022-11-28T00:14:03.343Z,101728.00
2022-11-28T00:16:31.547Z,101722.59
2022-11-28T00:19:00.726Z,101719.09
2022-11-28T00:21:30.285Z,101720.78
2022-11-28T00:23:59.116Z,101719.25
2022-11-28T00:26:29.825Z,101715.41
2022-11-28T00:28:58.976Z,101715.28
2022-11-28T00:31:34.078Z,101706.56
2022-11-28T00:34:03.698Z,101712.53
2022-11-28T00:36:31.394Z,101697.56
2022-11-28T00:38:59.213Z,101698.75
2022-11-28T00:41:31.114Z,101710.34
2022-11-28T00:43:59.211Z,101708.41
2022-11-28T00:46:27.455Z,101703.41
2022-11-28T00:48:55.235Z,101702.63
2022-11-28T00:51:27.622Z,101706.09
2022-11-28T00:53:57.517Z,101710.03
2022-11-28T00:56:37.889Z,101707.47
2022-11-28T00:59:07.298Z,101697.78
2022-11-28T01:01:40.647Z,101690.56
2022-11-28T01:04:11.647Z,101697.31
2022-11-28T01:06:42.569Z,101700.09
2022-11-28T01:09:13.970Z,101696.88
2022-11-28T01:11:43.840Z,101683.41
2022-11-28T01:14:12.779Z,101683.31
2022-11-28T01:16:40.913Z,101679.59
2022-11-28T01:19:08.863Z,101670.22
2022-11-28T01:21:36.691Z,101672.94
2022-11-28T01:24:04.689Z,101668.66
2022-11-28T01:26:33.065Z,101669.22
2022-11-28T01:29:01.329Z,101666.94
2022-11-28T01:31:30.485Z,101661.50
2022-11-28T01:33:58.437Z,101659.16
2022-11-28T01:36:27.238Z,101659.31
2022-11-28T01:38:55.249Z,101661.09
2022-11-28T01:41:26.582Z,101662.31
2022-11-28T01:44:00.946Z,101652.59
2022-11-28T01:46:29.824Z,101652.59
2022-11-28T01:49:02.942Z,101644.06
2022-11-28T01:51:31.182Z,101648.72
2022-11-28T01:54:00.226Z,101648.31
2022-11-28T01:56:41.408Z,101644.34
2022-11-28T01:59:11.799Z,101641.88
2022-11-28T02:01:40.745Z,101642.66
2022-11-28T02:04:09.406Z,101635.66
2022-11-28T02:06:37.211Z,101638.88
2022-11-28T02:09:10.667Z,101637.38
2022-11-28T02:11:52.971Z,101639.56
2022-11-28T02:15:08.437Z,101631.63
2022-11-28T02:18:03.356Z,101624.94
2022-11-28T02:21:07.101Z,101627.59
2022-11-28T02:23:37.638Z,101624.13
2022-11-28T02:26:39.116Z,101617.41
2022-11-28T02:29:37.888Z,101608.09
2022-11-28T02:32:14.505Z,101601.69
2022-11-28T02:34:48.705Z,101598.97
2022-11-28T02:37:45.739Z,101596.28
2022-11-28T02:40:29.432Z,101588.13
2022-11-28T02:43:03.115Z,101590.88
2022-11-28T02:45:43.010Z,101581.16
2022-11-28T02:48:25.137Z,101581.06
2022-11-28T02:51:06.789Z,101572.34
2022-11-28T02:53:35.689Z,101566.56
2022-11-28T02:56:04.598Z,101566.91
2022-11-28T02:58:32.174Z,101567.81
2022-11-28T03:01:00.561Z,101559.03
2022-11-28T03:04:16.154Z,101555.34
2022-11-28T03:07:07.496Z,101562.94
2022-11-28T03:10:03.361Z,101561.13
2022-11-28T03:12:47.696Z,101562.16
2022-11-28T03:15:21.640Z,101557.66
2022-11-28T03:18:04.458Z,101558.28
2022-11-28T03:20:35.023Z,101559.72
2022-11-28T03:23:15.240Z,101550.47
2022-11-28T03:25:59.246Z,101555.25
2022-11-28T03:28:43.448Z,101557.63
2022-11-28T03:31:16.486Z,101560.47
2022-11-28T03:33:53.928Z,101560.31
2022-11-28T03:36:33.088Z,101565.38
2022-11-28T03:39:09.474Z,101566.84
2022-11-28T03:41:42.833Z,101561.97
2022-11-28T03:44:19.251Z,101562.63
2022-11-28T03:46:53.115Z,101566.78
2022-11-28T03:49:31.274Z,101564.16
2022-11-28T03:52:04.581Z,101558.47
2022-11-28T03:54:55.682Z,101549.63
2022-11-28T03:58:02.837Z,101550.25
2022-11-28T04:00:31.303Z,101550.41
2022-11-28T04:03:32.792Z,101543.84
2022-11-28T04:06:10.618Z,101551.38
2022-11-28T04:08:46.959Z,101546.28
2022-11-28T04:11:28.126Z,101544.25
2022-11-28T04:14:08.393Z,101544.97
2022-11-28T04:16:53.609Z,101543.91
2022-11-28T04:19:48.946Z,101543.28
2022-11-28T04:22:38.237Z,101540.28
2022-11-28T04:25:09.879Z,101543.25
2022-11-28T04:27:40.214Z,101538.13
2022-11-28T04:30:09.345Z,101528.66
2022-11-28T04:32:41.658Z,101538.72
2022-11-28T04:35:19.617Z,101540.31
2022-11-28T04:37:50.270Z,101531.28
2022-11-28T04:40:20.546Z,101530.03
2022-11-28T04:42:53.889Z,101527.97
2022-11-28T04:45:47.627Z,101525.16
2022-11-28T04:48:15.345Z,101529.22
2022-11-28T04:50:58.294Z,101527.72
2022-11-28T04:53:35.512Z,101519.44
2022-11-28T04:56:19.698Z,101516.97
2022-11-28T04:58:49.706Z,101525.47
2022-11-28T05:01:30.658Z,101524.25
2022-11-28T05:03:58.567Z,101522.22
2022-11-28T05:06:33.092Z,101517.69
2022-11-28T05:09:01.132Z,101525.03
2022-11-28T05:11:29.879Z,101518.78
2022-11-28T05:13:57.681Z,101519.38
2022-11-28T05:16:25.321Z,101511.25
2022-11-28T05:18:53.246Z,101504.91
2022-11-28T05:21:21.218Z,101498.03
2022-11-28T05:23:49.647Z,101501.38
2022-11-28T05:26:20.694Z,101504.09
2022-11-28T05:28:53.352Z,101499.00
2022-11-28T05:31:22.405Z,101494.16
2022-11-28T05:33:51.191Z,101498.84
2022-11-28T05:36:18.809Z,101493.19
2022-11-28T05:38:46.616Z,101487.34
2022-11-28T05:41:25.810Z,101491.66
2022-11-28T05:43:55.429Z,101497.41
2022-11-28T05:46:23.822Z,101491.78
2022-11-28T05:48:51.521Z,101494.75
2022-11-28T05:51:19.191Z,101493.31
2022-11-28T05:53:46.913Z,101488.59
2022-11-28T05:56:19.719Z,101495.97
2022-11-28T05:58:47.816Z,101506.81
2022-11-28T06:01:27.500Z,101502.28
2022-11-28T06:04:00.785Z,101503.59
2022-11-28T06:06:31.136Z,101502.84
2022-11-28T06:08:59.203Z,101499.34
2022-11-28T06:11:28.541Z,101495.72
2022-11-28T06:13:56.834Z,101505.69
2022-11-28T06:16:27.345Z,101497.41
2022-11-28T06:18:57.038Z,101486.19
2022-11-28T06:21:25.302Z,101489.53
2022-11-28T06:23:53.088Z,101487.31
2022-11-28T06:26:23.658Z,101487.31
2022-11-28T06:28:51.337Z,101492.84
2022-11-28T06:31:24.805Z,101496.28
2022-11-28T06:33:52.497Z,101491.94
2022-11-28T06:36:20.490Z,101489.84
2022-11-28T06:38:48.596Z,101486.34
2022-11-28T06:41:19.208Z,101488.75
2022-11-28T06:43:47.718Z,101492.09
2022-11-28T06:46:19.518Z,101481.66
2022-11-28T06:48:50.070Z,101479.47
2022-11-28T06:51:19.060Z,101467.13
2022-11-28T06:53:46.662Z,101476.66
2022-11-28T06:56:17.785Z,101471.69
2022-11-28T06:58:46.156Z,101471.53
2022-11-28T07:01:18.401Z,101469.34
2022-11-28T07:03:47.296Z,101457.09
2022-11-28T07:06:17.809Z,101461.84
2022-11-28T07:08:46.794Z,101453.94
2022-11-28T07:11:18.503Z,101460.44
2022-11-28T07:13:48.212Z,101450.50
2022-11-28T07:16:23.275Z,101454.97
2022-11-28T07:18:51.537Z,101456.84
2022-11-28T07:21:20.360Z,101452.06
2022-11-28T07:23:48.529Z,101450.84
2022-11-28T07:26:20.101Z,101445.41
2022-11-28T07:28:49.256Z,101446.94
2022-11-28T07:31:19.478Z,101443.94
2022-11-28T07:33:49.888Z,101445.44
2022-11-28T07:36:28.596Z,101440.47
2022-11-28T07:38:59.186Z,101445.63
2022-11-28T07:41:28.178Z,101446.00
2022-11-28T07:43:58.974Z,101452.50
2022-11-28T07:46:28.571Z,101452.63
2022-11-28T07:48:56.682Z,101461.19
2022-11-28T07:51:30.389Z,101465.66
2022-11-28T07:53:58.041Z,101453.63
2022-11-28T07:56:39.594Z,101453.81
2022-11-28T07:59:13.161Z,101432.66
2022-11-28T08:01:40.869Z,101434.69
2022-11-28T08:04:10.283Z,101429.47
2022-11-28T08:06:41.805Z,101433.13
2022-11-28T08:09:12.085Z,101433.53
2022-11-28T08:11:40.419Z,101422.97
2022-11-28T08:14:08.049Z,101410.94
2022-11-28T08:16:37.031Z,101410.59
2022-11-28T08:19:05.187Z,101420.84
2022-11-28T08:21:35.534Z,101427.28
2022-11-28T08:24:04.740Z,101430.75
2022-11-28T08:26:33.135Z,101421.19
2022-11-28T08:29:02.098Z,101427.03
2022-11-28T08:31:35.564Z,101416.84
2022-11-28T08:34:06.100Z,101426.22
2022-11-28T08:36:34.128Z,101429.22
2022-11-28T08:39:22.295Z,101429.88
2022-11-28T08:41:52.469Z,101423.00
2022-11-28T08:44:20.166Z,101426.63
2022-11-28T08:46:47.732Z,101424.53
2022-11-28T08:49:16.108Z,101427.38
2022-11-28T08:51:44.144Z,101428.53
2022-11-28T08:54:12.382Z,101427.34
2022-11-28T08:56:40.345Z,101424.00
2022-11-28T08:59:09.668Z,101422.78
2022-11-28T09:01:37.465Z,101418.38
2022-11-28T09:04:05.479Z,101421.41
2022-11-28T09:06:33.110Z,101428.06
2022-11-28T09:09:03.053Z,101416.50
2022-11-28T09:11:31.631Z,101413.16
2022-11-28T09:14:00.534Z,101425.88
2022-11-28T09:16:28.222Z,101429.88
2022-11-28T09:18:59.596Z,101415.06
2022-11-28T09:21:27.767Z,101416.38
2022-11-28T09:23:56.348Z,101411.31
2022-11-28T09:26:25.457Z,101412.69
2022-11-28T09:28:54.011Z,101409.78
2022-11-28T09:31:22.742Z,101399.69
2022-11-28T09:33:50.580Z,101403.50
2022-11-28T09:36:22.173Z,101403.88
2022-11-28T09:38:50.583Z,101409.22
2022-11-28T09:41:44.588Z,101406.41
2022-11-28T09:44:14.903Z,101404.38
2022-11-28T09:46:44.692Z,101400.69
2022-11-28T09:49:24.486Z,101407.84
2022-11-28T09:52:19.133Z,101403.91
2022-11-28T09:54:56.421Z,101410.22
2022-11-28T09:57:33.724Z,101425.78
2022-11-28T10:00:01.912Z,101420.56
2022-11-28T10:03:04.452Z,101414.59
2022-11-28T10:05:37.993Z,101405.00
2022-11-28T10:08:18.222Z,101392.06
2022-11-28T10:10:50.442Z,101386.06
2022-11-28T10:13:47.084Z,101381.34
2022-11-28T10:16:33.306Z,101385.66
2022-11-28T10:19:09.899Z,101381.69
2022-11-28T10:21:55.103Z,101384.22
2022-11-28T10:24:37.429Z,101383.38
2022-11-28T10:27:06.421Z,101379.47
2022-11-28T10:29:57.858Z,101382.34
2022-11-28T10:32:42.593Z,101384.22
2022-11-28T10:35:33.039Z,101390.53
2022-11-28T10:38:01.117Z,101390.38
2022-11-28T10:40:40.373Z,101384.75
2022-11-28T10:44:02.935Z,101379.88
2022-11-28T10:46:52.838Z,101390.53
2022-11-28T10:49:20.874Z,101381.09
2022-11-28T10:51:51.537Z,101377.16
2022-11-28T10:54:25.070Z,101377.63
2022-11-28T10:57:17.731Z,101364.94
2022-11-28T11:00:06.476Z,101360.47
2022-11-28T11:02:44.318Z,101367.66
2022-11-28T11:05:15.850Z,101367.78
2022-11-28T11:07:49.440Z,101363.75
2022-11-28T11:10:37.474Z,101367.66
2022-11-28T11:13:20.937Z,101358.75
2022-11-28T11:15:57.708Z,101354.88
2022-11-28T11:18:28.917Z,101353.75
2022-11-28T11:21:15.342Z,101340.41
2022-11-28T11:23:44.547Z,101343.91
2022-11-28T11:26:26.149Z,101332.88
2022-11-28T11:28:54.691Z,101327.47
2022-11-28T11:31:26.781Z,101329.97
2022-11-28T11:34:17.176Z,101329.00
2022-11-28T11:36:45.359Z,101332.66
2022-11-28T11:39:12.897Z,101329.78
2022-11-28T11:41:45.828Z,101330.59
2022-11-28T11:44:20.503Z,101318.50
2022-11-28T11:46:57.642Z,101319.09
2022-11-28T11:49:30.080Z,101315.25
2022-11-28T11:52:00.465Z,101304.72
2022-11-28T11:54:28.707Z,101305.25
2022-11-28T11:57:24.973Z,101301.13
2022-11-28T12:00:15.297Z,101290.72
2022-11-28T12:02:57.190Z,101287.13
2022-11-28T12:08:52.837Z,101290.31
2022-11-28T12:11:36.542Z,101275.94
2022-11-28T12:14:25.940Z,101261.16
2022-11-28T12:17:46.749Z,101276.47
2022-11-28T12:20:40.064Z,101263.00
2022-11-28T12:23:38.376Z,101264.88
2022-11-28T12:26:16.663Z,101259.31
2022-11-28T12:29:02.931Z,101263.66
2022-11-28T12:31:59.953Z,101262.47
2022-11-28T12:34:46.354Z,101245.84
2022-11-28T12:38:09.761Z,101252.31
2022-11-28T12:40:44.187Z,101255.69
2022-11-28T12:43:21.727Z,101246.81
2022-11-28T12:45:59.878Z,101253.56
2022-11-28T12:48:53.245Z,101234.25
2022-11-28T12:52:05.925Z,101230.41
2022-11-28T12:54:58.603Z,101233.56
2022-11-28T12:58:06.999Z,101225.97
2022-11-28T13:00:59.126Z,101229.25
2022-11-28T13:04:03.640Z,101228.13
2022-11-28T13:06:37.090Z,101224.00
2022-11-28T13:09:26.011Z,101228.63
2022-11-28T13:12:12.182Z,101221.72
2022-11-28T13:14:51.148Z,101221.28
2022-11-28T13:17:22.379Z,101209.78
2022-11-28T13:20:06.904Z,101214.94
2022-11-28T13:22:47.014Z,101211.00
2022-11-28T13:25:33.489Z,101200.66
2022-11-28T13:28:21.751Z,101202.25
2022-11-28T13:30:58.844Z,101203.09
2022-11-28T13:33:52.486Z,101201.00
2022-11-28T13:39:33.058Z,101201.19
2022-11-28T13:42:58.973Z,101193.22
2022-11-28T13:45:28.408Z,101194.84
2022-11-28T13:48:01.112Z,101185.00
2022-11-28T13:50:28.934Z,101191.44
2022-11-28T13:53:23.211Z,101185.88
2022-11-28T13:56:03.725Z,101183.81
2022-11-28T13:58:56.956Z,101181.81
2022-11-28T14:01:44.242Z,101180.53
2022-11-28T14:04:14.877Z,101181.47
2022-11-28T14:06:54.565Z,101179.59
2022-11-28T14:09:44.872Z,101182.97
2022-11-28T14:12:19.259Z,101174.66
2022-11-28T14:15:07.403Z,101173.31
2022-11-28T14:18:54.484Z,101179.97
2022-11-28T14:21:31.453Z,101175.66
2022-11-28T14:24:25.252Z,101169.81
2022-11-28T14:27:02.987Z,101172.19
2022-11-28T14:29:41.795Z,101168.47
2022-11-28T14:32:31.192Z,101175.81
2022-11-28T14:35:01.674Z,101169.56
2022-11-28T14:37:34.772Z,101167.81
2022-11-28T14:40:03.709Z,101172.34
2022-11-28T14:42:59.406Z,101173.53
2022-11-28T14:45:44.631Z,101172.19
2022-11-28T14:48:30.449Z,101176.59
2022-11-28T14:51:02.058Z,101167.13
2022-11-28T14:53:37.033Z,101175.66
2022-11-28T14:56:24.580Z,101172.00
2022-11-28T14:58:57.305Z,101173.78
2022-11-28T15:01:45.961Z,101169.38
2022-11-28T15:04:35.234Z,101177.56
2022-11-28T15:07:10.818Z,101179.22
2022-11-28T15:10:07.218Z,101177.81
2022-11-28T15:13:07.637Z,101186.47
2022-11-28T15:15:35.839Z,101188.84
2022-11-28T15:18:04.907Z,101189.84
2022-11-28T15:20:42.531Z,101186.28
2022-11-28T15:23:43.241Z,101193.31
2022-11-28T15:26:27.933Z,101193.66
2022-11-28T15:29:19.987Z,101197.88
2022-11-28T15:31:51.628Z,101195.94
2022-11-28T15:34:28.033Z,101200.25
2022-11-28T15:37:04.930Z,101204.97
2022-11-28T15:39:35.985Z,101208.13
2022-11-28T15:42:05.874Z,101213.66
2022-11-28T15:44:34.888Z,101212.03
2022-11-28T15:47:03.231Z,101204.66
2022-11-28T15:49:33.821Z,101206.75
2022-11-28T15:52:04.654Z,101212.13
2022-11-28T15:54:34.551Z,101220.66
2022-11-28T15:57:02.294Z,101215.31
2022-11-28T15:59:30.860Z,101217.19
2022-11-28T16:02:16.948Z,101214.13
2022-11-28T16:04:45.772Z,101208.25
2022-11-28T16:07:16.332Z,101205.66
2022-11-28T16:10:01.098Z,101205.50
2022-11-28T16:12:29.896Z,101203.56
2022-11-28T16:15:02.022Z,101208.13
2022-11-28T16:17:34.117Z,101207.59
2022-11-28T16:20:03.712Z,101204.59
2022-11-28T16:22:36.975Z,101209.50
2022-11-28T16:25:14.335Z,101208.50
2022-11-28T16:27:44.697Z,101213.88
2022-11-28T16:30:33.592Z,101204.72
2022-11-28T16:33:24.517Z,101204.50
2022-11-28T16:35:52.192Z,101200.50
2022-11-28T16:38:24.696Z,101210.09
2022-11-28T16:41:01.168Z,101194.41
2022-11-28T16:43:38.381Z,101203.81
2022-11-28T16:46:17.142Z,101203.56
2022-11-28T16:48:57.623Z,101207.41
2022-11-28T16:51:30.790Z,101208.13
2022-11-28T16:54:01.575Z,101203.28
2022-11-28T16:56:30.122Z,101206.63
2022-11-28T16:59:16.747Z,101198.97
2022-11-28T17:01:47.125Z,101207.94
2022-11-28T17:04:30.579Z,101209.41
2022-11-28T17:07:05.227Z,101203.63
2022-11-28T17:09:34.063Z,101201.00
2022-11-28T17:12:27.333Z,101202.88
2022-11-28T17:14:56.297Z,101210.03
2022-11-28T17:17:24.710Z,101200.44
2022-11-28T17:19:52.668Z,101202.97
2022-11-28T17:25:07.982Z,101206.34
2022-11-28T17:27:36.132Z,101196.00
2022-11-28T17:30:04.191Z,101207.66
2022-11-28T17:32:32.195Z,101200.69
2022-11-28T17:35:04.313Z,101196.44
2022-11-28T17:37:31.973Z,101201.47
2022-11-28T17:40:18.183Z,101196.88
2022-11-28T17:42:46.186Z,101204.59
2022-11-28T17:45:15.116Z,101203.16
2022-11-28T17:47:43.836Z,101200.47
2022-11-28T17:50:12.621Z,101197.34
2022-11-28T17:52:40.632Z,101201.81
2022-11-28T17:55:09.183Z,101212.41
2022-11-28T17:57:37.922Z,101205.19
2022-11-28T18:00:08.025Z,101202.09
2022-11-28T18:02:42.461Z,101202.81
2022-11-28T18:05:10.409Z,101202.03
2022-11-28T18:07:40.201Z,101207.34
2022-11-28T18:10:12.138Z,101198.16
2022-11-28T18:12:40.438Z,101198.38
2022-11-28T18:15:10.644Z,101202.31
2022-11-28T18:17:39.206Z,101199.81
2022-11-28T18:20:08.591Z,101204.19
2022-11-28T18:22:37.009Z,101201.47
2022-11-28T18:25:08.026Z,101200.72
2022-11-28T18:27:36.152Z,101199.88
2022-11-28T18:30:04.634Z,101197.19
2022-11-28T18:32:32.967Z,101198.44
2022-11-28T18:35:03.361Z,101185.81
2022-11-28T18:37:31.187Z,101190.13
2022-11-28T18:39:59.125Z,101188.38
2022-11-28T18:42:27.801Z,101187.09
2022-11-28T18:44:55.548Z,101179.50
2022-11-28T18:47:26.133Z,101175.97
2022-11-28T18:49:54.616Z,101183.94
2022-11-28T18:52:22.825Z,101171.88
2022-11-28T18:54:51.270Z,101172.78
2022-11-28T18:57:18.947Z,101174.06
2022-11-28T18:59:54.249Z,101175.06
2022-11-28T19:02:23.826Z,101175.00
2022-11-28T19:04:53.142Z,101174.47
2022-11-28T19:07:22.332Z,101174.69
2022-11-28T19:09:51.162Z,101174.91
2022-11-28T19:12:19.883Z,101168.81
2022-11-28T19:14:48.191Z,101162.75
2022-11-28T19:17:16.298Z,101162.69
2022-11-28T19:19:44.861Z,101162.00
2022-11-28T19:22:12.782Z,101171.44
2022-11-28T19:24:46.350Z,101177.06
2022-11-28T19:27:14.800Z,101176.03
2022-11-28T19:29:44.418Z,101174.63
2022-11-28T19:32:12.734Z,101174.06
2022-11-28T19:34:40.900Z,101178.16
2022-11-28T19:37:09.115Z,101177.31
2022-11-28T19:39:37.200Z,101184.91
2022-11-28T19:42:05.002Z,101185.81
2022-11-28T19:44:33.870Z,101182.53
2022-11-28T19:47:01.843Z,101177.31
2022-11-28T19:49:30.057Z,101180.13
2022-11-28T19:51:58.514Z,101183.22
2022-11-28T19:54:26.661Z,101178.78
2022-11-28T19:56:56.248Z,101177.59
2022-11-28T19:59:24.147Z,101180.84
2022-11-28T20:01:53.937Z,101173.91
2022-11-28T20:04:23.031Z,101166.22
2022-11-28T20:06:51.280Z,101175.06
2022-11-28T20:09:18.993Z,101169.19
2022-11-28T20:11:48.111Z,101180.34
2022-11-28T20:14:20.264Z,101178.00
2022-11-28T20:16:48.543Z,101186.06
2022-11-28T20:19:17.879Z,101183.09
2022-11-28T20:21:46.600Z,101183.22
2022-11-28T20:24:16.058Z,101183.03
2022-11-28T20:26:46.009Z,101183.44
2022-11-28T20:29:16.193Z,101178.16
2022-11-28T20:31:46.421Z,101185.34
2022-11-28T20:34:18.388Z,101184.38
2022-11-28T20:36:52.489Z,101176.19
2022-11-28T20:39:20.267Z,101179.69
2022-11-28T20:41:48.819Z,101184.78
2022-11-28T20:44:19.047Z,101182.88
2022-11-28T20:46:49.521Z,101174.06
2022-11-28T20:49:18.360Z,101177.59
2022-11-28T20:51:46.250Z,101172.28
2022-11-28T20:54:14.486Z,101169.41
2022-11-28T20:59:33.011Z,101181.47
2022-11-28T21:02:01.193Z,101177.81
2022-11-28T21:04:28.907Z,101173.50
2022-11-28T21:06:56.917Z,101178.16
2022-11-28T21:09:25.402Z,101179.44
2022-11-28T21:11:59.029Z,101178.78
2022-11-28T21:14:29.321Z,101172.78
2022-11-28T21:16:58.367Z,101181.13
2022-11-28T21:19:26.335Z,101169.13
2022-11-28T21:21:54.478Z,101172.16
2022-11-28T21:24:22.483Z,101174.06
2022-11-28T21:26:53.948Z,101170.81
2022-11-28T21:29:24.519Z,101169.56
2022-11-28T21:31:53.642Z,101171.53
2022-11-28T21:34:22.782Z,101172.88
2022-11-28T21:36:50.722Z,101172.66
2022-11-28T21:39:22.051Z,101170.69
2022-11-28T21:41:51.174Z,101163.97
2022-11-28T21:44:19.148Z,101162.88
2022-11-28T21:46:46.879Z,101161.38
2022-11-28T21:49:14.857Z,101160.25
2022-11-28T21:51:42.578Z,101165.06
2022-11-28T21:54:13.754Z,101162.88
2022-11-28T21:56:42.135Z,101162.09
2022-11-28T21:59:10.693Z,101166.75
2022-11-28T22:01:41.578Z,101177.78
2022-11-28T22:04:10.687Z,101163.91
2022-11-28T22:06:40.048Z,101164.19
2022-11-28T22:09:09.935Z,101174.28
2022-11-28T22:11:39.645Z,101164.31
2022-11-28T22:14:07.513Z,101168.69
2022-11-28T22:16:36.099Z,101166.75
2022-11-28T22:19:04.981Z,101179.16
2022-11-28T22:24:21.578Z,101161.38
2022-11-28T22:26:50.421Z,101166.31
2022-11-28T22:29:19.207Z,101167.72
2022-11-28T22:31:47.114Z,101160.50
2022-11-28T22:34:15.962Z,101168.28
2022-11-28T22:36:44.324Z,101160.59
2022-11-28T22:39:12.104Z,101159.53
2022-11-28T22:41:40.174Z,101166.31
2022-11-28T22:44:10.609Z,101153.47
2022-11-28T22:46:38.667Z,101164.75
2022-11-28T22:49:07.268Z,101162.16
2022-11-28T22:51:36.588Z,101157.22
2022-11-28T22:54:04.782Z,101158.94
2022-11-28T22:56:34.572Z,101154.19
2022-11-28T22:59:05.071Z,101156.38
2022-11-28T23:01:34.881Z,101152.34
2022-11-28T23:04:03.758Z,101149.59
2022-11-28T23:06:34.488Z,101149.72
2022-11-28T23:09:08.541Z,101151.50
2022-11-28T23:11:37.201Z,101146.69
2022-11-28T23:14:06.060Z,101146.09
2022-11-28T23:16:39.868Z,101137.75
2022-11-28T23:19:12.594Z,101137.25
2022-11-28T23:21:42.903Z,101143.97
2022-11-28T23:24:20.285Z,101144.19
2022-11-28T23:26:51.719Z,101148.34
2022-11-28T23:29:20.177Z,101132.84
2022-11-28T23:31:50.004Z,101139.88
2022-11-28T23:34:17.824Z,101129.75
2022-11-28T23:36:47.273Z,101128.66
2022-11-28T23:39:19.101Z,101136.69
2022-11-28T23:41:47.561Z,101128.78
2022-11-28T23:44:17.183Z,101125.41
2022-11-28T23:46:45.852Z,101132.66
2022-11-28T23:49:14.207Z,101131.06
2022-11-28T23:51:42.411Z,101129.84
2022-11-28T23:54:11.467Z,101131.78
2022-11-28T23:56:41.788Z,101130.63
2022-11-28T23:59:11.853Z,101131.53
